createdAt,value
2022-12-20T11:08:27.207Z,0
2022-12-20T11:09:32.401Z,3742
2022-12-20T11:10:38.491Z,3431
2022-12-20T11:11:44.610Z,3610
2022-12-20T11:12:50.723Z,3736
2022-12-20T11:13:56.831Z,3951
2022-12-20T11:15:02.923Z,4088
2022-12-20T11:16:09.034Z,4187
2022-12-20T11:17:15.142Z,4469
2022-12-20T11:18:21.260Z,4794
2022-12-20T11:19:27.338Z,4956
2022-12-20T11:20:33.468Z,5041
2022-12-20T11:21:39.548Z,5067
2022-12-20T11:22:45.665Z,5397
2022-12-20T11:23:51.739Z,5928
2022-12-20T11:24:57.857Z,5967
2022-12-20T11:26:03.940Z,5691
2022-12-20T11:27:10.040Z,5718
2022-12-20T11:28:16.164Z,6117
2022-12-20T11:29:22.255Z,6379
2022-12-20T11:30:28.339Z,5944
2022-12-20T11:31:34.465Z,5593
2022-12-20T11:32:40.544Z,5210
2022-12-20T11:33:46.645Z,4816
2022-12-20T11:34:52.723Z,4542
2022-12-20T11:35:58.818Z,4550
2022-12-20T11:37:05.011Z,4492
2022-12-20T11:38:11.185Z,4307
2022-12-20T11:39:17.322Z,3932
2022-12-20T11:40:23.500Z,3744
2022-12-20T11:41:29.748Z,3775
2022-12-20T11:42:35.844Z,3720
2022-12-20T11:43:42.022Z,3439
2022-12-20T11:44:48.178Z,3306
2022-12-20T11:45:54.360Z,3274
2022-12-20T11:47:00.530Z,3300
2022-12-20T11:48:05.703Z,3286
2022-12-20T11:49:11.802Z,3339
2022-12-20T11:50:17.898Z,3490
2022-12-20T11:51:23.994Z,3627
2022-12-20T11:52:30.133Z,3755
2022-12-20T11:53:36.211Z,3948
2022-12-20T11:54:42.348Z,4053
2022-12-20T11:55:48.393Z,3796
2022-12-20T11:56:54.511Z,3377
2022-12-20T11:58:00.590Z,3083
2022-12-20T11:59:06.690Z,2877
2022-12-20T12:00:12.842Z,2749
2022-12-20T12:01:18.916Z,2692
2022-12-20T12:02:24.996Z,2783
2022-12-20T12:03:31.097Z,2899
2022-12-20T12:04:37.199Z,2953
2022-12-20T12:05:43.296Z,2972
2022-12-20T12:06:49.410Z,2886
2022-12-20T12:07:55.494Z,2664
2022-12-20T12:09:01.593Z,2561
2022-12-20T12:10:07.709Z,2527
2022-12-20T12:11:13.808Z,2578
